• Join FlightAware (Why Join?)
  • Login
  • US Flag 
08:18AM EDT


 

Airport Tracker/Info


-or-


 

Live Flight TrackerFlight Track Log ✈ JBU739 ✈ 25 May 2012 ✈ KJFK - TJPS / PSE

Flight Track Log - Related Links

Times and Time Zones

All times are in EDT time to prevent confusion due to time zone crossing. See the JBU739 flight status page for this flight to view local times or setup timezone preferences in your user account.

Time Position Orientation Groundspeed Altitude Reporting Facility
EDT Latitude Longitude Course Direction KTS MPH feet Rate Location/Type
12:11AM 40.6167 -73.7833 207° Southwest 166 191 1,200  Level New York TRACON
12:12AM 40.5667 -73.8167 122° Southeast 213 245 2,600 2,400 Climbing New York TRACON
12:14AM 40.4889 -73.6556 115° Southeast 262 302 9,000 2,640 Climbing New York Center
12:15AM 40.4539 -73.5586 144° Southeast 285 328 11,100 1,800 Climbing New York Center
12:16AM 40.3744 -73.4817 150° Southeast 337 388 12,600 1,740 Climbing New York Center
12:17AM 40.2842 -73.4128 152° Southeast 362 417 14,700 1,860 Climbing New York Center
12:18AM 40.1858 -73.3439 151° Southeast 392 451 16,400 1,680 Climbing New York Center
12:19AM 40.0872 -73.2725 151° Southeast 400 460 18,100 1,680 Climbing New York Center
12:20AM 39.9969 -73.2069 151° Southeast 406 467 19,900 1,560 Climbing New York Center
12:21AM 39.8942 -73.1328 150° Southeast 411 473 21,300 1,500 Climbing New York Center
12:22AM 39.7875 -73.0536 152° Southeast 422 486 22,900 1,320 Climbing New York Center
12:23AM 39.6783 -72.9772 152° Southeast 434 499 23,900 1,140 Climbing New York Center
12:24AM 39.5694 -72.9036 150° Southeast 440 506 25,200 1,260 Climbing New York Center
12:25AM 39.4561 -72.8197 151° Southeast 451 519 26,500 1,140 Climbing New York Center
12:26AM 39.3408 -72.7356 152° Southeast 461 531 27,600 1,080 Climbing New York Center
12:27AM 39.2233 -72.6547 151° Southeast 466 536 28,700 960 Climbing New York Center
12:28AM 39.1081 -72.5714 150° Southeast 472 543 29,600 1,140 Climbing New York Center
12:29AM 38.9864 -72.4828 152° Southeast 478 550 31,000 1,320 Climbing New York Center
12:30AM 38.8706 -72.4025 155° Southeast 478 550 32,300 1,200 Climbing New York Center
12:31AM 38.7528 -72.3333 151° Southeast 473 544 33,400 1,260 Climbing New York Center
12:32AM 38.6392 -72.2511 150° Southeast 468 539 34,800 1,320 Climbing New York Center
12:33AM 38.5297 -72.1692 148° Southeast 468 539 36,100 960 Climbing New York Center
12:34AM 38.4222 -72.0822 156° South 455 524 36,800 420 Climbing New York Center
12:35AM 38.3125 -72.0192 149° Southeast 449 517 37,000 60 Climbing New York Center
12:36AM 38.2008 -71.9328 154° Southeast 449 517 37,000  Level New York Center
12:37AM 38.0867 -71.8622 150° Southeast 454 522 37,000 -60 Level New York Center
12:38AM 37.9747 -71.7814 154° Southeast 454 522 36,900 -60 Descending New York Center
12:39AM 37.8628 -71.7114 148° Southeast 454 522 36,900  Level New York Center
12:40AM 37.7531 -71.6258 154° Southeast 451 519 36,900  Level New York Center
12:41AM 37.6367 -71.5536 151° Southeast 457 526 37,000  Climbing New York Center
12:42AM 37.5244 -71.4764 157° South 457 526 37,000  Level New York Center
12:43AM 37.4081 -71.4153 156° South 457 526 37,000  Level New York Center
12:44AM 37.3061 -71.3594 168° South 436 502 37,000 -60 Level New York Center
12:45AM 37.1750 -71.3244 148° Southeast 455 524 36,900 -60 Descending New York Center
12:46AM 37.0794 -71.2508 157° South 422 486 36,900  Level New York Center
12:47AM 36.9525 -71.1822 151° Southeast 416 479 36,900  Level New York Center
12:48AM 36.8547 -71.1142 155° Southeast 423 487 37,000  Climbing New York Center
12:49AM 36.7381 -71.0464 154° Southeast 438 504 37,000  Level New York Center
12:50AM 36.6275 -70.9786 158° South 451 519 37,000 -60 Level New York Center
12:51AM 36.5047 -70.9161 153° Southeast 461 531 36,900  Descending New York Center
12:58AM 35.7667 -70.4500 168° South 435 501 37,000  Climbing New York Oceanic (ODAPS)
01:40AM 30.9000 -69.2333 168° South 433 498 37,000  Level New York Oceanic (ODAPS)
02:04AM 27.9333 -68.5333 169° South 450 518 37,000  Level New York Oceanic (ODAPS)
02:24AM 25.4667 -68.0000 170° South 455 524 37,000  Level New York Oceanic (ODAPS)
02:40AM 23.4500 -67.6000 169° South 460 529 37,000  Level San Juan Center
02:45AM 22.8000 -67.4667 172° South 460 529 37,000  Level San Juan Center
02:46AM 22.6833 -67.4500 167° South 460 529 37,000  Level San Juan Center
02:47AM 22.5500 -67.4167 172° South 470 541 37,000  Level San Juan Center
02:48AM 22.4333 -67.4000 167° South 460 529 37,000  Level San Juan Center
02:49AM 22.3000 -67.3667 173° South 450 518 37,000  Level San Juan Center
02:50AM 22.1667 -67.3500 25° Northeast 470 541 37,000  Level San Juan Center
02:50AM 22.2333 -67.3167 180° South 443 510 37,000  Level New York Oceanic (ODAPS)
02:51AM 22.0500 -67.3167 167° South 460 529 37,000  Level San Juan Center
02:52AM 21.9167 -67.2833 172° South 460 529 37,000  Level San Juan Center
02:53AM 21.8000 -67.2667 167° South 460 529 37,000  Level San Juan Center
02:54AM 21.6667 -67.2333 173° South 460 529 37,000  Level San Juan Center
02:55AM 21.5333 -67.2167 172° South 460 529 37,000  Level San Juan Center
02:56AM 21.4167 -67.2000 167° South 460 529 37,000  Level San Juan Center
02:57AM 21.2833 -67.1667 173° South 460 529 37,000  Level San Juan Center
02:58AM 21.1500 -67.1500 172° South 470 541 37,000  Level San Juan Center
02:59AM 21.0333 -67.1333 167° South 450 518 37,000  Level San Juan Center
03:00AM 20.9000 -67.1000 173° South 460 529 37,000  Level San Juan Center
03:01AM 20.7667 -67.0833 173° South 460 529 37,000  Level San Juan Center
03:02AM 20.6333 -67.0667 172° South 460 529 37,000  Level San Juan Center
03:03AM 20.5167 -67.0500 167° South 460 529 37,000  Level San Juan Center
03:04AM 20.3833 -67.0167 173° South 460 529 37,000  Level San Juan Center
03:05AM 20.2500 -67.0000 172° South 470 541 37,000  Level San Juan Center
03:06AM 20.1333 -66.9833 173° South 470 541 37,000 -300 Level San Juan Center
03:07AM 20.0000 -66.9667 173° South 470 541 36,500 -720 Descending San Juan Center
03:08AM 19.8667 -66.9500 167° South 460 529 35,600 -900 Descending San Juan Center
03:09AM 19.7333 -66.9167 172° South 470 541 34,700 -1,080 Descending San Juan Center
03:10AM 19.6167 -66.9000 175° South 460 529 33,500 -1,140 Descending San Juan Center
03:11AM 19.4500 -66.8833 167° South 470 541 32,500 -1,560 Descending San Juan Center
03:12AM 19.3167 -66.8500 173° South 470 541 30,400 -2,220 Descending San Juan Center
03:13AM 19.1833 -66.8333 172° South 470 541 28,100 -2,280 Descending San Juan Center
03:14AM 19.0667 -66.8167 172° South 460 529 25,900 -2,160 Descending San Juan Center
03:15AM 18.9500 -66.8000 173° South 450 518 23,800 -2,220 Descending San Juan Center
03:16AM 18.8167 -66.7833 172° South 440 506 21,500 -2,280 Descending San Juan Center
03:17AM 18.7000 -66.7667 172° South 420 483 19,300 -2,160 Descending San Juan Center
03:18AM 18.5833 -66.7500 162° South 400 460 17,200 -2,040 Descending San Juan Center
03:19AM 18.4833 -66.7167 180° South 380 437 15,200 -2,040 Descending San Juan Center
03:20AM 18.3833 -66.7167 171° South 370 426 13,200 -1,920 Descending San Juan Center
03:21AM 18.2833 -66.7000 171° South 360 414 11,400 -1,500 Descending San Juan Center
03:22AM 18.1833 -66.6833 167° South 330 380 10,200 -1,500 Descending San Juan Center
03:23AM 18.1167 -66.6667 169° South 290 334 8,400 -1,920 Descending San Juan Center
03:24AM 18.0333 -66.6500 169° South 290 334 6,400 -1,560 Descending San Juan Center
03:25AM 17.9500 -66.6333 180° South 300 345 5,300 -600 Descending San Juan Center
03:26AM 17.8833 -66.6333 105° East 250 288 5,300  Level San Juan Center
03:27AM 17.8667 -66.5667 109° East 210 242 5,300 -600 Level San Juan Center
03:28AM 17.8500 -66.5167 90° East 190 219 4,200 -900 Descending San Juan Center
03:29AM 17.8500 -66.4667 90° East 180 207 3,600 -300 Descending San Juan Center
03:30AM 17.8500 -66.4167 25° Northeast 150 173 3,600  Level San Juan Center
03:31AM 17.8833 -66.4000 25° Northeast 160 184 3,700 -60 Climbing San Juan Center
03:32AM 17.9167 -66.3833 316° Northwest 160 184 3,500 -600 Descending San Juan Center
03:33AM 17.9500 -66.4167 293° West 160 184 2,500 -900 Descending San Juan Center
03:35AM 17.9833 -66.5000 293° West 150 173 800 -900 Descending San Juan Center